Time;durP1;ratioP1;P1;durP2;ratioP2;P2;SDS_P1;SDS_P2;PMS_P1;PMS_P2;Temp;Humidity;BMP_temperature;BMP_pressure;BME280_temperature;BME280_humidity;BME280_pressure;Samples;Min_cycle;Max_cycle;Signal;HPM_P1;HPM_P2
2022/07/31 00:02:15;;;;;;;;;;;18.50;99.90;;;;;;5135903;27;19961;-76
2022/07/31 00:04:40;;;;;;;;;;;18.50;99.90;;;;;;5135240;27;19954;-76
2022/07/31 00:07:06;;;;;;;;;;;18.50;99.90;;;;;;5135603;27;19904;-76
2022/07/31 00:09:32;;;;;;;;;;;18.50;99.90;;;;;;5136042;27;19903;-76
2022/07/31 00:11:57;;;;;;;;;;;18.50;99.90;;;;;;5135222;27;19907;-76
2022/07/31 00:14:23;;;;;;;;;;;18.50;99.90;;;;;;5136287;27;19903;-76
2022/07/31 00:16:49;;;;;;;;;;;18.50;99.90;;;;;;5136103;27;19929;-76
2022/07/31 00:19:16;;;;;;;;;;;18.50;99.90;;;;;;5135216;27;20267;-76
2022/07/31 00:21:42;;;;;;;;;;;18.50;99.90;;;;;;5135987;27;19914;-76
2022/07/31 00:24:07;;;;;;;;;;;18.50;99.90;;;;;;5117002;27;19983;-76
2022/07/31 00:26:33;;;;;;;;;;;18.50;99.90;;;;;;5135920;27;19903;-75
2022/07/31 00:28:58;;;;;;;;;;;18.30;99.90;;;;;;5135269;27;19904;-78
2022/07/31 00:31:24;;;;;;;;;;;18.20;99.90;;;;;;5135783;27;19911;-76
2022/07/31 00:33:50;;;;;;;;;;;17.90;99.90;;;;;;5135719;27;19917;-77
2022/07/31 00:36:15;;;;;;;;;;;17.70;99.90;;;;;;5134830;27;19911;-81
2022/07/31 00:38:41;;;;;;;;;;;17.70;99.90;;;;;;5135690;27;20310;-82
2022/07/31 00:41:06;;;;;;;;;;;17.60;99.90;;;;;;5135228;27;19904;-82
2022/07/31 00:43:32;;;;;;;;;;;17.60;99.90;;;;;;5135296;27;19908;-81
2022/07/31 00:45:58;;;;;;;;;;;17.60;99.90;;;;;;5134834;27;20367;-78
2022/07/31 00:48:23;;;;;;;;;;;17.40;99.90;;;;;;5135059;27;20344;-77
2022/07/31 00:50:49;;;;;;;;;;;17.40;99.90;;;;;;5135081;27;19903;-77
2022/07/31 00:53:15;;;;;;;;;;;17.40;99.90;;;;;;5134965;27;19952;-77
2022/07/31 00:55:41;;;;;;;;;;;17.30;99.90;;;;;;5134997;27;20301;-77
2022/07/31 00:58:06;;;;;;;;;;;17.10;99.90;;;;;;5134558;27;19943;-77
2022/07/31 01:00:32;;;;;;;;;;;16.90;99.90;;;;;;5135172;27;19904;-77
2022/07/31 01:02:57;;;;;;;;;;;16.80;99.90;;;;;;5134231;27;19914;-77
2022/07/31 01:05:23;;;;;;;;;;;16.80;99.90;;;;;;5135410;27;20340;-77
2022/07/31 01:07:49;;;;;;;;;;;16.70;99.90;;;;;;5134594;27;19903;-77
2022/07/31 01:10:24;;;;;;;;;;;16.70;99.90;;;;;;5134408;27;20087;-77
2022/07/31 01:12:54;;;;;;;;;;;16.70;99.90;;;;;;5134904;27;19903;-77
2022/07/31 01:15:20;;;;;;;;;;;16.70;99.90;;;;;;5134576;27;19904;-77
2022/07/31 01:17:48;;;;;;;;;;;16.70;99.90;;;;;;5134616;27;19930;-77
2022/07/31 01:20:14;;;;;;;;;;;16.80;99.90;;;;;;5133963;27;19903;-77
2022/07/31 01:22:58;;;;;;;;;;;16.80;99.90;;;;;;5134710;27;20007;-77
2022/07/31 01:25:27;;;;;;;;;;;16.70;99.90;;;;;;5116388;27;19912;-78
2022/07/31 01:27:59;;;;;;;;;;;16.70;99.90;;;;;;5134742;27;19911;-77
2022/07/31 01:30:27;;;;;;;;;;;16.70;99.90;;;;;;5134316;27;19907;-77
2022/07/31 01:32:54;;;;;;;;;;;16.70;99.90;;;;;;5134285;27;19904;-78
2022/07/31 01:35:21;;;;;;;;;;;16.70;99.90;;;;;;5133977;27;19911;-77
2022/07/31 01:37:51;;;;;;;;;;;16.60;99.90;;;;;;5134402;27;19990;-78
2022/07/31 01:40:21;;;;;;;;;;;16.60;99.90;;;;;;5133973;27;19919;-78
2022/07/31 01:42:50;;;;;;;;;;;16.60;99.90;;;;;;5134405;27;20377;-78
2022/07/31 01:45:18;;;;;;;;;;;16.60;99.90;;;;;;5133857;27;19972;-79
2022/07/31 01:47:44;;;;;;;;;;;16.50;99.90;;;;;;5134258;27;19904;-78
2022/07/31 01:50:10;;;;;;;;;;;16.40;99.90;;;;;;5133534;27;19932;-77
2022/07/31 01:52:38;;;;;;;;;;;16.40;99.90;;;;;;5134190;27;19910;-77
2022/07/31 01:55:04;;;;;;;;;;;16.40;99.90;;;;;;5133681;27;19903;-77
2022/07/31 01:57:31;;;;;;;;;;;16.40;99.90;;;;;;5134346;27;19926;-76
2022/07/31 02:00:01;;;;;;;;;;;16.40;99.90;;;;;;5133987;27;19964;-76
2022/07/31 02:02:28;;;;;;;;;;;16.40;99.90;;;;;;5133826;27;19914;-76
2022/07/31 02:04:54;;;;;;;;;;;16.30;99.90;;;;;;5133872;27;19915;-76
2022/07/31 02:07:21;;;;;;;;;;;16.20;99.90;;;;;;5133353;28;20108;-75
2022/07/31 02:09:47;;;;;;;;;;;16.30;99.90;;;;;;5133793;28;19903;-78
2022/07/31 02:12:13;;;;;;;;;;;16.30;99.90;;;;;;5133487;28;20332;-82
2022/07/31 02:14:40;;;;;;;;;;;16.20;99.90;;;;;;5133937;28;19933;-82
2022/07/31 02:17:06;;;;;;;;;;;16.20;99.90;;;;;;5133196;28;19949;-84
2022/07/31 02:19:33;;;;;;;;;;;16.10;99.90;;;;;;5134091;28;19990;-82
2022/07/31 02:21:59;;;;;;;;;;;16.10;99.90;;;;;;5133389;28;19960;-79
2022/07/31 02:24:25;;;;;;;;;;;16.20;99.90;;;;;;5134036;28;20294;-81
2022/07/31 02:26:51;;;;;;;;;;;16.00;99.90;;;;;;5134275;28;19904;-82
2022/07/31 02:29:17;;;;;;;;;;;16.00;99.90;;;;;;5136438;27;19911;-78
2022/07/31 02:31:44;;;;;;;;;;;16.00;99.90;;;;;;5138144;27;19943;-77
2022/07/31 02:34:12;;;;;;;;;;;16.00;99.90;;;;;;5137333;27;19903;-77
2022/07/31 02:36:38;;;;;;;;;;;16.00;99.90;;;;;;5137991;27;19904;-77
2022/07/31 02:39:04;;;;;;;;;;;15.90;99.90;;;;;;5136925;27;19922;-76
2022/07/31 02:41:29;;;;;;;;;;;15.90;99.90;;;;;;5137710;27;20344;-76
2022/07/31 02:43:56;;;;;;;;;;;15.90;99.90;;;;;;5138164;27;19915;-75
2022/07/31 02:46:22;;;;;;;;;;;15.90;99.90;;;;;;5137533;27;20367;-76
2022/07/31 02:48:48;;;;;;;;;;;15.90;99.90;;;;;;5137774;27;19903;-76
2022/07/31 02:51:13;;;;;;;;;;;15.80;99.90;;;;;;5137097;27;20332;-77
2022/07/31 02:53:40;;;;;;;;;;;15.60;99.90;;;;;;5137750;27;19957;-76
2022/07/31 02:56:08;;;;;;;;;;;15.80;99.90;;;;;;5136914;27;19904;-76
2022/07/31 02:58:34;;;;;;;;;;;15.80;99.90;;;;;;5137426;27;19907;-76
2022/07/31 03:01:00;;;;;;;;;;;15.80;99.90;;;;;;5137676;27;19904;-77
2022/07/31 03:03:26;;;;;;;;;;;15.80;99.90;;;;;;5137247;27;19908;-77
2022/07/31 03:05:51;;;;;;;;;;;15.80;99.90;;;;;;5137162;27;19907;-77
2022/07/31 03:08:17;;;;;;;;;;;15.80;99.90;;;;;;5136712;27;19903;-77
2022/07/31 03:10:43;;;;;;;;;;;15.70;99.90;;;;;;5137230;27;19956;-76
2022/07/31 03:13:10;;;;;;;;;;;15.70;99.90;;;;;;5136762;27;19903;-77
2022/07/31 03:15:38;;;;;;;;;;;15.80;99.90;;;;;;5137253;27;19911;-77
2022/07/31 03:18:04;;;;;;;;;;;15.80;99.90;;;;;;5136852;27;19939;-77
2022/07/31 03:20:29;;;;;;;;;;;15.80;99.90;;;;;;5137464;27;19987;-77
2022/07/31 03:22:55;;;;;;;;;;;15.70;99.90;;;;;;5137004;27;19985;-77
2022/07/31 03:25:21;;;;;;;;;;;15.70;99.90;;;;;;5136522;27;19915;-78
2022/07/31 03:27:47;;;;;;;;;;;15.80;99.90;;;;;;5137015;27;19985;-79
2022/07/31 03:30:17;;;;;;;;;;;15.90;99.90;;;;;;5118185;27;19904;-82
2022/07/31 03:32:43;;;;;;;;;;;15.80;99.90;;;;;;5136723;27;20256;-81
2022/07/31 03:35:08;;;;;;;;;;;15.70;99.90;;;;;;5136235;27;19910;-83
2022/07/31 03:37:34;;;;;;;;;;;15.80;99.90;;;;;;5118434;27;19913;-81
2022/07/31 03:39:59;;;;;;;;;;;15.80;99.90;;;;;;5114582;28;20010;-79
2022/07/31 03:42:26;;;;;;;;;;;15.80;99.90;;;;;;5115308;28;19911;-77
2022/07/31 03:44:52;;;;;;;;;;;15.70;99.90;;;;;;5114811;28;19907;-78
2022/07/31 03:47:18;;;;;;;;;;;15.70;99.90;;;;;;5115520;28;19946;-78
2022/07/31 03:49:44;;;;;;;;;;;15.70;99.90;;;;;;5115810;28;19935;-78
2022/07/31 03:52:10;;;;;;;;;;;15.60;99.90;;;;;;5115448;28;19904;-78
2022/07/31 03:54:35;;;;;;;;;;;15.50;99.90;;;;;;5115898;28;19904;-77
2022/07/31 03:57:01;;;;;;;;;;;15.60;99.90;;;;;;5115890;28;19908;-77
2022/07/31 03:59:27;;;;;;;;;;;15.60;99.90;;;;;;5115381;28;19908;-78
2022/07/31 04:01:52;;;;;;;;;;;15.50;99.90;;;;;;5115805;28;19908;-77
2022/07/31 04:04:18;;;;;;;;;;;15.60;99.90;;;;;;5114004;28;19908;-78
2022/07/31 04:06:43;;;;;;;;;;;15.60;99.90;;;;;;5115485;28;19903;-78
2022/07/31 04:09:09;;;;;;;;;;;15.60;99.90;;;;;;5115079;28;19954;-78
2022/07/31 04:11:34;;;;;;;;;;;15.60;99.90;;;;;;5115644;28;20341;-78
2022/07/31 04:14:00;;;;;;;;;;;15.60;99.90;;;;;;5114038;28;19926;-78
2022/07/31 04:16:25;;;;;;;;;;;15.60;99.90;;;;;;5115053;28;19973;-77
2022/07/31 04:18:51;;;;;;;;;;;15.60;99.90;;;;;;5115645;28;19904;-77
2022/07/31 04:21:17;;;;;;;;;;;15.60;99.90;;;;;;5113702;28;20299;-77
2022/07/31 04:23:42;;;;;;;;;;;15.40;99.90;;;;;;5115348;27;19908;-77
2022/07/31 04:26:08;;;;;;;;;;;15.30;99.90;;;;;;5115020;28;20260;-77
2022/07/31 04:28:33;;;;;;;;;;;15.30;99.90;;;;;;5115000;28;19908;-77
2022/07/31 04:30:59;;;;;;;;;;;15.20;99.90;;;;;;5114228;28;19903;-77
2022/07/31 04:33:25;;;;;;;;;;;15.20;99.90;;;;;;5114632;28;19907;-77
2022/07/31 04:35:51;;;;;;;;;;;15.00;99.90;;;;;;5115085;28;20244;-77
2022/07/31 04:38:17;;;;;;;;;;;15.10;99.90;;;;;;5114612;28;19903;-77
2022/07/31 04:40:42;;;;;;;;;;;15.10;99.90;;;;;;5133298;27;19922;-77
2022/07/31 04:43:08;;;;;;;;;;;15.20;99.90;;;;;;5135233;27;19907;-77
2022/07/31 04:45:33;;;;;;;;;;;15.20;99.90;;;;;;5099860;27;19994;-77
2022/07/31 04:47:59;;;;;;;;;;;15.10;99.90;;;;;;5135770;27;20244;-77
2022/07/31 04:50:24;;;;;;;;;;;15.10;99.90;;;;;;5134207;27;19938;-76
2022/07/31 04:52:50;;;;;;;;;;;15.00;99.90;;;;;;5134899;27;19964;-77
2022/07/31 04:55:16;;;;;;;;;;;14.90;99.90;;;;;;5134385;27;19911;-77
2022/07/31 04:57:41;;;;;;;;;;;14.90;99.90;;;;;;5134663;27;20298;-77
2022/07/31 05:00:09;;;;;;;;;;;14.90;99.90;;;;;;5135032;27;19904;-77
2022/07/31 05:02:34;;;;;;;;;;;14.90;99.90;;;;;;5134456;27;20343;-78
2022/07/31 05:05:00;;;;;;;;;;;15.00;99.90;;;;;;5135511;27;19998;-78
2022/07/31 05:07:26;;;;;;;;;;;14.90;99.90;;;;;;5134627;27;19947;-79
2022/07/31 05:09:52;;;;;;;;;;;15.00;99.90;;;;;;5134889;27;19908;-78
2022/07/31 05:12:17;;;;;;;;;;;15.00;99.90;;;;;;5134530;27;19956;-79
2022/07/31 05:14:43;;;;;;;;;;;14.90;99.90;;;;;;5134974;27;19904;-79
2022/07/31 05:17:08;;;;;;;;;;;14.90;99.90;;;;;;5135277;27;20245;-78
2022/07/31 05:19:34;;;;;;;;;;;14.90;99.90;;;;;;5134334;27;19907;-78
2022/07/31 05:21:59;;;;;;;;;;;14.90;99.90;;;;;;5134808;27;19911;-77
2022/07/31 05:24:25;;;;;;;;;;;14.90;99.90;;;;;;5134133;27;19949;-77
2022/07/31 05:26:51;;;;;;;;;;;14.90;99.90;;;;;;5134679;27;19903;-78
2022/07/31 05:29:16;;;;;;;;;;;14.90;99.90;;;;;;5134546;27;19928;-78
2022/07/31 05:31:42;;;;;;;;;;;14.80;99.90;;;;;;5134694;27;20044;-78
2022/07/31 05:34:08;;;;;;;;;;;14.70;99.90;;;;;;5134397;27;19903;-78
2022/07/31 05:36:33;;;;;;;;;;;14.80;99.90;;;;;;5115578;27;19915;-79
2022/07/31 05:38:59;;;;;;;;;;;14.80;99.90;;;;;;5134483;27;20351;-83
2022/07/31 05:41:24;;;;;;;;;;;14.90;99.90;;;;;;5133990;27;19950;-83
2022/07/31 05:43:50;;;;;;;;;;;14.90;99.90;;;;;;5116067;27;20006;-83
2022/07/31 05:46:16;;;;;;;;;;;14.90;99.90;;;;;;5133772;27;19907;-81
2022/07/31 05:48:42;;;;;;;;;;;14.90;99.90;;;;;;5134535;27;20398;-81
2022/07/31 05:51:09;;;;;;;;;;;14.90;99.90;;;;;;5134253;27;19904;-81
2022/07/31 05:53:35;;;;;;;;;;;15.00;99.90;;;;;;5133552;27;19915;-82
2022/07/31 05:56:00;;;;;;;;;;;15.00;99.90;;;;;;5134314;27;19911;-82
2022/07/31 05:58:26;;;;;;;;;;;14.90;99.90;;;;;;5115378;27;19952;-83
2022/07/31 06:00:51;;;;;;;;;;;15.00;99.90;;;;;;5133933;27;19954;-83
2022/07/31 06:03:21;;;;;;;;;;;15.00;99.90;;;;;;5132914;27;19911;-82
2022/07/31 06:05:47;;;;;;;;;;;15.00;99.90;;;;;;5134486;27;20003;-82
2022/07/31 06:08:12;;;;;;;;;;;15.00;99.90;;;;;;5133910;27;19994;-79
2022/07/31 06:10:38;;;;;;;;;;;15.00;99.90;;;;;;5115164;28;19904;-78
2022/07/31 06:13:04;;;;;;;;;;;14.90;99.90;;;;;;5134004;28;19956;-77
2022/07/31 06:15:30;;;;;;;;;;;15.00;99.90;;;;;;5133261;28;19925;-77
2022/07/31 06:17:55;;;;;;;;;;;15.10;99.90;;;;;;5134131;28;19914;-77
2022/07/31 06:20:21;;;;;;;;;;;15.00;99.90;;;;;;5133915;28;19904;-77
2022/07/31 06:22:47;;;;;;;;;;;14.90;99.90;;;;;;5133825;28;19913;-77
2022/07/31 06:25:12;;;;;;;;;;;14.90;99.90;;;;;;5133782;28;20002;-77
2022/07/31 06:27:38;;;;;;;;;;;15.10;99.90;;;;;;5133696;28;19907;-77
2022/07/31 06:30:04;;;;;;;;;;;15.20;99.90;;;;;;5134036;28;19945;-77
2022/07/31 06:32:30;;;;;;;;;;;15.30;99.90;;;;;;5133143;28;20391;-76
2022/07/31 06:34:56;;;;;;;;;;;15.30;99.90;;;;;;5133893;28;19968;-77
2022/07/31 06:37:21;;;;;;;;;;;15.40;99.90;;;;;;5132857;28;19910;-77
2022/07/31 06:39:47;;;;;;;;;;;15.40;99.90;;;;;;5133850;28;19989;-77
2022/07/31 06:42:22;;;;;;;;;;;15.40;99.90;;;;;;5115279;28;19908;-77
2022/07/31 06:44:48;;;;;;;;;;;15.40;99.90;;;;;;5133800;28;19911;-77
2022/07/31 06:47:14;;;;;;;;;;;15.40;99.90;;;;;;5133633;28;19903;-77
2022/07/31 06:49:39;;;;;;;;;;;15.30;99.90;;;;;;5114800;28;19904;-77
2022/07/31 06:52:05;;;;;;;;;;;15.40;99.90;;;;;;5133649;28;20359;-77
2022/07/31 06:54:31;;;;;;;;;;;15.40;99.90;;;;;;5114617;28;19904;-77
2022/07/31 06:56:56;;;;;;;;;;;15.30;99.90;;;;;;5133364;28;19990;-77
2022/07/31 06:59:22;;;;;;;;;;;15.20;99.90;;;;;;5133090;28;20236;-77
2022/07/31 07:01:47;;;;;;;;;;;15.30;99.90;;;;;;5133575;28;19911;-77
2022/07/31 07:04:13;;;;;;;;;;;15.30;99.90;;;;;;5133538;28;19907;-77
2022/07/31 07:06:38;;;;;;;;;;;15.30;99.90;;;;;;5132707;28;19945;-78
2022/07/31 07:09:04;;;;;;;;;;;15.40;99.90;;;;;;5115179;28;19914;-78
2022/07/31 07:11:30;;;;;;;;;;;15.40;99.90;;;;;;5132684;28;19911;-78
2022/07/31 07:13:55;;;;;;;;;;;15.50;99.90;;;;;;5133863;27;19904;-78
2022/07/31 07:16:21;;;;;;;;;;;15.50;99.90;;;;;;5136985;27;19903;-78
2022/07/31 07:18:46;;;;;;;;;;;15.60;99.90;;;;;;5118711;27;20004;-78
2022/07/31 07:21:12;;;;;;;;;;;15.60;99.90;;;;;;5136386;27;19904;-78
2022/07/31 07:23:38;;;;;;;;;;;15.70;99.90;;;;;;5136063;27;20360;-78
2022/07/31 07:26:03;;;;;;;;;;;15.70;99.90;;;;;;5136562;27;19911;-78
2022/07/31 07:28:29;;;;;;;;;;;15.80;99.90;;;;;;5118061;27;19956;-78
2022/07/31 07:30:54;;;;;;;;;;;15.80;99.90;;;;;;5136875;27;20360;-78
2022/07/31 07:33:20;;;;;;;;;;;15.90;99.90;;;;;;5136553;27;19954;-77
2022/07/31 07:35:46;;;;;;;;;;;15.90;99.90;;;;;;5137140;27;19910;-77
2022/07/31 07:38:11;;;;;;;;;;;16.00;99.90;;;;;;5136831;27;20264;-77
2022/07/31 07:40:37;;;;;;;;;;;16.10;99.90;;;;;;5135687;27;19943;-77
2022/07/31 07:43:03;;;;;;;;;;;16.20;99.90;;;;;;5136626;27;19914;-77
2022/07/31 07:45:28;;;;;;;;;;;16.30;99.90;;;;;;5136109;27;20040;-77
2022/07/31 07:47:54;;;;;;;;;;;16.40;99.90;;;;;;5136484;27;20145;-76
2022/07/31 07:50:19;;;;;;;;;;;16.40;99.90;;;;;;5136452;27;19910;-76
2022/07/31 07:52:45;;;;;;;;;;;16.50;99.90;;;;;;5136131;27;19904;-76
2022/07/31 07:55:11;;;;;;;;;;;16.60;99.90;;;;;;5136513;27;19903;-75
2022/07/31 07:57:37;;;;;;;;;;;16.50;99.90;;;;;;5117510;27;19903;-75
2022/07/31 08:00:05;;;;;;;;;;;16.60;99.90;;;;;;5136424;27;19926;-75
2022/07/31 08:02:30;;;;;;;;;;;16.80;99.90;;;;;;5135652;27;19911;-75
2022/07/31 08:04:56;;;;;;;;;;;16.90;99.90;;;;;;5136348;27;20229;-75
2022/07/31 08:07:28;;;;;;;;;;;17.00;99.90;;;;;;5135727;27;19903;-75
2022/07/31 08:09:54;;;;;;;;;;;17.10;99.90;;;;;;5136340;27;19945;-75
2022/07/31 08:12:19;;;;;;;;;;;17.20;99.90;;;;;;5136108;27;20348;-75
2022/07/31 08:14:45;;;;;;;;;;;17.20;99.90;;;;;;5135463;27;19903;-75
2022/07/31 08:17:11;;;;;;;;;;;17.10;99.90;;;;;;5135815;27;19903;-75
2022/07/31 08:19:37;;;;;;;;;;;17.10;99.90;;;;;;5135487;27;19990;-75
2022/07/31 08:22:02;;;;;;;;;;;17.10;99.90;;;;;;5135918;27;20059;-75
2022/07/31 08:24:28;;;;;;;;;;;17.10;99.90;;;;;;5135472;27;19958;-76
2022/07/31 08:29:37;;;;;;;;;;;17.20;99.90;;;;;;5135376;27;19910;-75
2022/07/31 08:32:03;;;;;;;;;;;17.10;99.90;;;;;;5135768;27;20264;-75
2022/07/31 08:34:29;;;;;;;;;;;17.20;99.90;;;;;;5134846;27;19995;-76
2022/07/31 08:36:54;;;;;;;;;;;17.20;99.90;;;;;;5135464;27;19912;-75
2022/07/31 08:39:20;;;;;;;;;;;17.10;99.90;;;;;;5135466;27;19922;-74
2022/07/31 08:41:45;;;;;;;;;;;17.20;99.90;;;;;;5134859;27;19911;-75
2022/07/31 08:44:11;;;;;;;;;;;17.30;99.90;;;;;;5135591;27;19914;-75
2022/07/31 08:46:37;;;;;;;;;;;17.40;99.90;;;;;;5134920;27;19952;-75
2022/07/31 08:49:03;;;;;;;;;;;17.40;99.90;;;;;;5135548;27;19912;-75
2022/07/31 08:51:38;;;;;;;;;;;17.20;99.90;;;;;;5134764;27;19910;-76
2022/07/31 08:54:07;;;;;;;;;;;17.30;99.90;;;;;;5135548;27;19903;-75
2022/07/31 08:56:34;;;;;;;;;;;17.40;99.90;;;;;;5135053;27;20392;-75
2022/07/31 08:59:00;;;;;;;;;;;17.20;99.90;;;;;;5135289;27;19904;-75
2022/07/31 09:01:26;;;;;;;;;;;17.30;99.90;;;;;;5134672;27;19910;-75
2022/07/31 09:03:53;;;;;;;;;;;17.30;99.90;;;;;;5134939;27;19908;-75
2022/07/31 09:06:18;;;;;;;;;;;17.30;99.90;;;;;;5134853;27;20308;-75
2022/07/31 09:08:44;;;;;;;;;;;17.20;99.90;;;;;;5134463;27;19943;-75
2022/07/31 09:11:11;;;;;;;;;;;17.20;99.90;;;;;;5134666;27;19903;-76
2022/07/31 09:13:37;;;;;;;;;;;17.30;99.90;;;;;;5133794;27;19903;-75
2022/07/31 09:16:03;;;;;;;;;;;17.20;99.90;;;;;;5134264;27;19904;-75
2022/07/31 09:18:29;;;;;;;;;;;17.10;99.90;;;;;;5133810;27;20248;-76
2022/07/31 09:20:59;;;;;;;;;;;17.10;99.90;;;;;;5134307;27;19911;-75
2022/07/31 09:23:25;;;;;;;;;;;17.10;99.90;;;;;;5133973;27;19984;-75
2022/07/31 09:25:52;;;;;;;;;;;17.10;99.90;;;;;;5133839;27;19915;-75
2022/07/31 09:28:17;;;;;;;;;;;17.10;99.90;;;;;;5133890;27;19908;-75
2022/07/31 09:30:52;;;;;;;;;;;17.00;99.90;;;;;;5133761;27;19903;-75
2022/07/31 09:33:18;;;;;;;;;;;17.00;99.90;;;;;;5133880;27;20256;-76
2022/07/31 09:35:50;;;;;;;;;;;17.00;99.90;;;;;;5132823;27;20410;-75
2022/07/31 09:38:16;;;;;;;;;;;17.10;99.90;;;;;;5133221;27;19949;-75
2022/07/31 09:40:42;;;;;;;;;;;17.20;99.90;;;;;;5133369;27;19915;-74
2022/07/31 09:43:23;;;;;;;;;;;17.30;99.90;;;;;;5133649;27;20021;-74
2022/07/31 09:45:57;;;;;;;;;;;17.30;99.90;;;;;;5133664;27;19908;-74
2022/07/31 09:48:23;;;;;;;;;;;17.50;99.90;;;;;;5133064;27;20344;-74
2022/07/31 09:50:59;;;;;;;;;;;17.60;99.90;;;;;;5132594;27;19904;-74
2022/07/31 09:53:24;;;;;;;;;;;17.70;99.90;;;;;;5114818;27;20383;-76
2022/07/31 09:55:54;;;;;;;;;;;17.90;99.90;;;;;;5133052;27;19954;-75
2022/07/31 09:58:20;;;;;;;;;;;18.00;99.90;;;;;;5133606;27;20352;-75
2022/07/31 10:00:46;;;;;;;;;;;17.90;99.90;;;;;;5132689;27;19956;-75
2022/07/31 10:03:12;;;;;;;;;;;17.70;99.90;;;;;;5133528;27;19952;-75
2022/07/31 10:05:40;;;;;;;;;;;17.60;99.90;;;;;;5132245;27;19937;-74
2022/07/31 10:08:06;;;;;;;;;;;17.80;99.90;;;;;;5133468;27;20344;-75
2022/07/31 10:10:32;;;;;;;;;;;17.90;99.90;;;;;;5132907;27;19951;-74
2022/07/31 10:13:01;;;;;;;;;;;18.00;99.90;;;;;;5114756;28;19939;-74
2022/07/31 10:15:27;;;;;;;;;;;18.10;99.90;;;;;;5133026;28;19903;-75
2022/07/31 10:17:53;;;;;;;;;;;18.00;99.90;;;;;;5133422;28;19903;-74
2022/07/31 10:20:21;;;;;;;;;;;18.10;99.90;;;;;;5132916;28;20308;-74
2022/07/31 10:23:00;;;;;;;;;;;18.10;99.90;;;;;;5132598;28;20073;-74
2022/07/31 10:25:30;;;;;;;;;;;18.10;99.90;;;;;;5132872;28;19915;-75
2022/07/31 10:27:56;;;;;;;;;;;18.00;99.90;;;;;;5133723;28;20364;-74
2022/07/31 10:30:22;;;;;;;;;;;18.00;99.90;;;;;;5133264;28;19904;-75
2022/07/31 10:32:49;;;;;;;;;;;18.10;99.90;;;;;;5132410;28;19907;-74
2022/07/31 10:35:15;;;;;;;;;;;18.20;99.90;;;;;;5133032;28;20348;-74
2022/07/31 10:37:52;;;;;;;;;;;18.30;99.90;;;;;;5132442;28;20367;-75
2022/07/31 10:40:22;;;;;;;;;;;18.20;99.90;;;;;;5133278;28;19925;-75
2022/07/31 10:42:47;;;;;;;;;;;18.30;99.90;;;;;;5132308;28;19955;-75
2022/07/31 10:45:15;;;;;;;;;;;18.40;99.90;;;;;;5133245;28;19962;-75
2022/07/31 10:47:51;;;;;;;;;;;18.50;99.90;;;;;;5132473;28;19903;-75
2022/07/31 10:50:22;;;;;;;;;;;18.70;99.90;;;;;;5135552;27;19914;-75
2022/07/31 10:52:48;;;;;;;;;;;18.70;99.90;;;;;;5136167;27;19935;-75
2022/07/31 10:55:15;;;;;;;;;;;18.90;99.90;;;;;;5136983;27;19914;-75
2022/07/31 10:57:40;;;;;;;;;;;18.90;99.90;;;;;;5136341;27;19948;-75
2022/07/31 11:00:13;;;;;;;;;;;19.10;99.90;;;;;;5136664;27;20309;-73
2022/07/31 11:02:38;;;;;;;;;;;19.10;99.90;;;;;;5136299;27;19911;-74
2022/07/31 11:05:14;;;;;;;;;;;19.00;99.90;;;;;;5136775;27;19991;-74
2022/07/31 11:07:41;;;;;;;;;;;18.90;99.90;;;;;;5136152;27;20323;-74
2022/07/31 11:10:11;;;;;;;;;;;18.60;99.90;;;;;;5136744;27;19946;-74
2022/07/31 11:12:36;;;;;;;;;;;18.30;99.90;;;;;;5136037;27;19903;-74
2022/07/31 11:15:03;;;;;;;;;;;18.30;99.90;;;;;;5136238;27;20052;-74
2022/07/31 11:17:30;;;;;;;;;;;18.30;99.90;;;;;;5136091;27;19961;-74
2022/07/31 11:19:56;;;;;;;;;;;18.30;99.90;;;;;;5136431;27;19904;-74
2022/07/31 11:22:21;;;;;;;;;;;18.40;99.90;;;;;;5136118;27;19914;-75
2022/07/31 11:24:57;;;;;;;;;;;18.40;99.90;;;;;;5135566;27;19984;-74
2022/07/31 11:27:32;;;;;;;;;;;18.50;99.90;;;;;;5136331;27;19910;-74
2022/07/31 11:30:05;;;;;;;;;;;18.60;99.90;;;;;;5136328;27;19903;-74
2022/07/31 11:32:31;;;;;;;;;;;18.60;99.90;;;;;;5135742;27;20063;-74
2022/07/31 11:34:56;;;;;;;;;;;18.80;99.90;;;;;;5136033;27;20799;-74
2022/07/31 11:37:24;;;;;;;;;;;18.90;99.90;;;;;;5117439;27;19908;-74
2022/07/31 11:39:51;;;;;;;;;;;19.00;99.90;;;;;;5135540;27;20260;-74
2022/07/31 11:42:17;;;;;;;;;;;19.00;99.90;;;;;;5135947;27;20293;-74
2022/07/31 11:44:43;;;;;;;;;;;19.20;99.90;;;;;;5135612;27;19993;-75
2022/07/31 11:47:09;;;;;;;;;;;19.40;99.90;;;;;;5135804;27;19980;-75
2022/07/31 11:49:35;;;;;;;;;;;19.50;99.90;;;;;;5135102;27;19960;-74
2022/07/31 11:52:02;;;;;;;;;;;19.50;99.90;;;;;;5135835;27;19914;-74
2022/07/31 11:54:28;;;;;;;;;;;19.70;99.90;;;;;;5135626;27;19907;-75
2022/07/31 11:56:54;;;;;;;;;;;20.00;99.90;;;;;;5135665;27;19952;-75
2022/07/31 11:59:36;;;;;;;;;;;20.20;99.90;;;;;;5135460;27;20294;-76
2022/07/31 12:02:11;;;;;;;;;;;20.30;99.90;;;;;;5134385;27;19907;-75
2022/07/31 12:04:37;;;;;;;;;;;20.50;99.90;;;;;;5134751;27;19911;-75
2022/07/31 12:07:04;;;;;;;;;;;20.40;99.90;;;;;;5135569;27;20399;-75
2022/07/31 12:09:30;;;;;;;;;;;20.40;99.90;;;;;;5135718;27;20043;-76
2022/07/31 12:11:55;;;;;;;;;;;20.10;99.90;;;;;;5136087;27;19908;-75
2022/07/31 12:14:28;;;;;;;;;;;20.20;99.90;;;;;;5136122;27;19929;-75
2022/07/31 12:16:53;;;;;;;;;;;20.30;99.90;;;;;;5117146;27;19903;-75
2022/07/31 12:19:26;;;;;;;;;;;20.40;99.90;;;;;;5135738;27;20348;-75
2022/07/31 12:21:51;;;;;;;;;;;20.50;99.90;;;;;;5135126;27;19904;-74
2022/07/31 12:24:18;;;;;;;;;;;20.40;99.90;;;;;;5135508;27;19914;-74
2022/07/31 12:26:50;;;;;;;;;;;20.50;99.90;;;;;;5134863;27;19903;-74
2022/07/31 12:29:16;;;;;;;;;;;20.50;99.90;;;;;;5135625;27;20364;-74
2022/07/31 12:31:43;;;;;;;;;;;20.40;99.90;;;;;;5116657;27;19928;-74
2022/07/31 12:34:08;;;;;;;;;;;20.30;99.90;;;;;;5135496;27;19947;-74
2022/07/31 12:36:34;;;;;;;;;;;20.20;99.90;;;;;;5134866;27;20251;-74
2022/07/31 12:39:01;;;;;;;;;;;20.10;99.90;;;;;;5135166;27;19922;-73
2022/07/31 12:41:27;;;;;;;;;;;20.00;99.90;;;;;;5135555;27;19903;-74
2022/07/31 12:43:52;;;;;;;;;;;20.10;99.90;;;;;;5134801;27;19964;-75
2022/07/31 12:46:19;;;;;;;;;;;20.30;99.90;;;;;;5135321;27;19908;-74
2022/07/31 12:48:45;;;;;;;;;;;20.30;99.90;;;;;;5135031;27;20169;-74
2022/07/31 12:51:10;;;;;;;;;;;20.50;99.90;;;;;;5135060;27;20064;-74
2022/07/31 12:53:36;;;;;;;;;;;20.40;99.90;;;;;;5134424;27;20004;-74
2022/07/31 12:56:01;;;;;;;;;;;20.50;99.90;;;;;;5135582;27;19904;-74
2022/07/31 12:58:27;;;;;;;;;;;20.60;99.90;;;;;;5116767;27;19929;-74
2022/07/31 13:00:55;;;;;;;;;;;20.60;99.90;;;;;;5134496;27;19915;-73
2022/07/31 13:03:20;;;;;;;;;;;20.30;99.90;;;;;;5135023;27;19907;-73
2022/07/31 13:05:46;;;;;;;;;;;20.20;99.90;;;;;;5134718;27;19930;-74
2022/07/31 13:08:12;;;;;;;;;;;20.00;99.90;;;;;;5134633;27;19911;-73
2022/07/31 13:10:38;;;;;;;;;;;19.90;99.90;;;;;;5134366;27;19939;-73
2022/07/31 13:13:03;;;;;;;;;;;19.90;99.90;;;;;;5134491;27;20360;-73
2022/07/31 13:15:29;;;;;;;;;;;19.80;99.90;;;;;;5134777;27;19903;-73
2022/07/31 13:18:00;;;;;;;;;;;19.80;99.90;;;;;;5134147;27;19914;-73
2022/07/31 13:20:26;;;;;;;;;;;19.80;99.90;;;;;;5134259;27;20355;-72
2022/07/31 13:22:51;;;;;;;;;;;19.80;99.90;;;;;;5133985;27;19922;-73
2022/07/31 13:25:18;;;;;;;;;;;19.90;99.90;;;;;;5134908;27;19907;-73
2022/07/31 13:27:43;;;;;;;;;;;20.00;99.90;;;;;;5134016;27;20272;-73
2022/07/31 13:30:09;;;;;;;;;;;20.10;99.90;;;;;;5134097;27;19903;-73
2022/07/31 13:32:35;;;;;;;;;;;20.20;99.90;;;;;;5133189;27;19911;-75
2022/07/31 13:35:01;;;;;;;;;;;20.40;99.90;;;;;;5134286;27;19915;-73
2022/07/31 13:37:26;;;;;;;;;;;20.50;99.90;;;;;;5134392;27;19903;-72
2022/07/31 13:39:52;;;;;;;;;;;20.60;99.90;;;;;;5133274;27;20665;-73
2022/07/31 13:42:17;;;;;;;;;;;20.80;99.90;;;;;;5134336;27;19981;-73
2022/07/31 13:44:43;;;;;;;;;;;20.90;99.90;;;;;;5133701;27;19912;-73
2022/07/31 13:47:09;;;;;;;;;;;20.90;99.90;;;;;;5134385;27;19903;-73
2022/07/31 13:49:35;;;;;;;;;;;21.00;99.90;;;;;;5133993;27;19972;-74
2022/07/31 13:52:01;;;;;;;;;;;20.90;99.90;;;;;;5134352;27;19907;-73
2022/07/31 13:54:27;;;;;;;;;;;20.90;99.90;;;;;;5134080;27;20256;-73
2022/07/31 13:56:53;;;;;;;;;;;20.80;99.90;;;;;;5133410;27;20352;-74
2022/07/31 13:59:19;;;;;;;;;;;20.80;99.90;;;;;;5134165;27;19949;-73
2022/07/31 14:01:49;;;;;;;;;;;20.90;99.90;;;;;;5133307;27;19907;-74
2022/07/31 14:04:15;;;;;;;;;;;20.90;99.90;;;;;;5133768;27;20249;-74
2022/07/31 14:06:40;;;;;;;;;;;20.50;99.90;;;;;;5133546;27;19953;-74
2022/07/31 14:09:06;;;;;;;;;;;20.40;99.90;;;;;;5134236;27;19903;-73
2022/07/31 14:11:32;;;;;;;;;;;20.20;99.90;;;;;;5134007;27;20327;-74
2022/07/31 14:13:57;;;;;;;;;;;20.10;99.90;;;;;;5133437;27;20280;-73
2022/07/31 14:16:23;;;;;;;;;;;19.60;99.90;;;;;;5134010;27;19903;-73